Time;durP1;ratioP1;P1;durP2;ratioP2;P2;SDS_P1;SDS_P2;PMS_P1;PMS_P2;Temp;Humidity;BMP_temperature;BMP_pressure;BME280_temperature;BME280_humidity;BME280_pressure;Samples;Min_cycle;Max_cycle;Signal;HPM_P1;HPM_P2
2022/10/30 00:01:14;;;;;;;9.73;7.20;;;18.30;92.00;;;;;;5016884;28;20955;-71
2022/10/30 00:03:40;;;;;;;13.23;8.17;;;18.30;92.00;;;;;;5017407;28;20495;-71
2022/10/30 00:06:08;;;;;;;14.23;8.83;;;18.20;92.20;;;;;;5017008;28;20826;-71
2022/10/30 00:08:34;;;;;;;12.33;8.10;;;18.20;92.20;;;;;;5016943;28;20458;-71
2022/10/30 00:11:11;;;;;;;12.20;7.80;;;18.20;92.30;;;;;;5017459;28;20455;-71
2022/10/30 00:13:38;;;;;;;16.63;7.23;;;18.20;92.40;;;;;;5016813;28;20468;-71
2022/10/30 00:16:07;;;;;;;17.23;7.30;;;18.20;92.40;;;;;;5016776;28;20448;-71
2022/10/30 00:18:35;;;;;;;13.37;8.20;;;18.10;92.50;;;;;;5016328;28;20834;-71
2022/10/30 00:21:05;;;;;;;10.27;8.00;;;18.10;92.60;;;;;;5016408;28;20459;-71
2022/10/30 00:23:32;;;;;;;10.40;7.47;;;18.10;92.50;;;;;;5016569;28;20487;-71
2022/10/30 00:26:03;;;;;;;14.60;8.10;;;18.10;92.50;;;;;;5016242;28;20919;-71
2022/10/30 00:28:31;;;;;;;18.07;8.23;;;18.00;92.50;;;;;;5016815;28;20471;-71
2022/10/30 00:31:00;;;;;;;14.60;7.93;;;18.00;92.50;;;;;;5016304;28;20463;-71
2022/10/30 00:33:26;;;;;;;13.13;7.53;;;18.00;92.60;;;;;;5015969;28;20522;-71
2022/10/30 00:35:53;;;;;;;10.60;7.50;;;18.00;92.60;;;;;;5016094;28;20455;-71
2022/10/30 00:38:20;;;;;;;13.43;7.27;;;17.90;92.60;;;;;;5016229;28;20452;-71
2022/10/30 00:40:47;;;;;;;11.33;7.47;;;17.90;92.80;;;;;;5016284;28;20443;-71
2022/10/30 00:43:33;;;;;;;8.93;6.60;;;17.90;92.80;;;;;;5015984;28;20488;-71
2022/10/30 00:46:05;;;;;;;10.63;7.60;;;17.90;92.80;;;;;;5016281;28;20448;-71
2022/10/30 00:48:32;;;;;;;11.10;7.50;;;17.90;92.90;;;;;;5016074;28;20433;-71
2022/10/30 00:51:01;;;;;;;11.90;8.23;;;17.80;92.80;;;;;;5016028;28;20491;-71
2022/10/30 00:53:29;;;;;;;11.50;8.17;;;17.80;92.80;;;;;;5016024;28;20466;-71
2022/10/30 00:55:59;;;;;;;11.23;6.87;;;17.80;92.60;;;;;;5016019;28;20458;-71
2022/10/30 00:58:32;;;;;;;10.17;7.27;;;17.70;92.10;;;;;;5014815;28;20436;-71
2022/10/30 01:01:02;;;;;;;8.47;6.30;;;17.70;92.20;;;;;;5015947;28;20444;-71
2022/10/30 01:03:31;;;;;;;8.80;6.90;;;17.70;92.20;;;;;;5015475;28;21012;-71
2022/10/30 01:06:03;;;;;;;12.17;6.70;;;17.60;92.00;;;;;;5015861;28;20455;-71
2022/10/30 01:08:30;;;;;;;12.87;7.50;;;17.60;92.00;;;;;;5016116;28;20439;-71
2022/10/30 01:10:59;;;;;;;14.57;6.33;;;17.60;91.90;;;;;;5015914;28;20452;-71
2022/10/30 01:13:27;;;;;;;13.57;6.87;;;17.60;91.90;;;;;;5015571;28;20475;-71
2022/10/30 01:16:08;;;;;;;14.40;6.70;;;17.60;91.80;;;;;;5015336;28;20483;-71
2022/10/30 01:18:46;;;;;;;11.97;6.57;;;17.60;91.60;;;;;;5015464;28;20451;-71
2022/10/30 01:21:31;;;;;;;12.50;7.20;;;17.60;91.50;;;;;;5015564;28;20868;-71
2022/10/30 01:24:20;;;;;;;10.70;6.60;;;17.60;91.40;;;;;;5015491;28;20472;-71
2022/10/30 01:26:56;;;;;;;10.07;6.40;;;17.60;91.40;;;;;;5015235;28;20938;-71
2022/10/30 01:29:35;;;;;;;8.70;6.20;;;17.60;91.40;;;;;;5015253;28;20440;-71
2022/10/30 01:32:19;;;;;;;12.00;5.87;;;17.70;91.60;;;;;;5015213;28;20510;-71
2022/10/30 01:34:58;;;;;;;8.73;6.63;;;17.70;91.50;;;;;;5015232;28;20440;-71
2022/10/30 01:37:31;;;;;;;8.50;6.03;;;17.70;91.60;;;;;;5015165;28;20444;-71
2022/10/30 01:40:04;;;;;;;11.20;6.13;;;17.70;91.50;;;;;;5014539;28;20908;-71
2022/10/30 01:42:47;;;;;;;13.40;6.10;;;17.70;91.10;;;;;;5015273;28;20471;-71
2022/10/30 01:45:18;;;;;;;7.50;5.73;;;17.80;90.90;;;;;;5015427;28;20471;-71
2022/10/30 01:48:09;;;;;;;6.90;5.27;;;17.80;90.50;;;;;;5014947;28;20431;-71
2022/10/30 01:50:46;;;;;;;7.97;5.50;;;17.80;90.90;;;;;;5015377;28;20443;-71
2022/10/30 01:53:21;;;;;;;7.60;6.10;;;17.80;90.80;;;;;;5015305;28;20471;-71
2022/10/30 01:55:54;;;;;;;10.60;6.50;;;17.80;90.90;;;;;;5014714;28;20446;-71
2022/10/30 01:58:25;;;;;;;12.77;5.83;;;17.80;90.40;;;;;;5014821;28;20432;-71
2022/10/30 02:00:56;;;;;;;10.27;5.87;;;17.80;90.60;;;;;;5014571;28;20447;-71
2022/10/30 02:03:24;;;;;;;10.37;6.60;;;17.80;90.60;;;;;;5014635;28;20503;-71
2022/10/30 02:05:53;;;;;;;11.40;6.70;;;17.80;90.90;;;;;;5015184;28;20451;-71
2022/10/30 02:08:21;;;;;;;9.30;6.00;;;17.80;91.00;;;;;;5014412;28;20448;-71
2022/10/30 02:10:49;;;;;;;10.07;6.50;;;17.70;90.70;;;;;;5014232;28;20447;-71
2022/10/30 02:13:16;;;;;;;10.50;6.50;;;17.70;90.50;;;;;;5014194;28;20843;-71
2022/10/30 02:15:45;;;;;;;9.10;6.87;;;17.70;90.40;;;;;;5015200;28;20460;-71
2022/10/30 02:18:11;;;;;;;10.00;5.77;;;17.70;90.40;;;;;;5014565;28;20443;-71
2022/10/30 02:20:40;;;;;;;9.17;6.10;;;17.80;90.10;;;;;;5013986;28;20959;-71
2022/10/30 02:23:07;;;;;;;10.43;5.90;;;17.70;90.00;;;;;;5014181;28;20483;-71
2022/10/30 02:25:34;;;;;;;8.90;6.13;;;17.70;90.10;;;;;;5014241;28;20866;-71
2022/10/30 02:28:01;;;;;;;11.57;6.57;;;17.70;90.30;;;;;;5014527;28;20451;-71
2022/10/30 02:30:28;;;;;;;9.23;6.30;;;17.70;90.40;;;;;;5014456;28;20865;-71
2022/10/30 02:32:55;;;;;;;9.77;6.73;;;17.70;90.40;;;;;;5014486;28;20533;-72
2022/10/30 02:35:21;;;;;;;13.67;6.33;;;17.60;90.50;;;;;;5014445;28;20447;-71
2022/10/30 02:37:50;;;;;;;11.57;6.90;;;17.60;90.60;;;;;;5014309;28;20870;-71
2022/10/30 02:40:17;;;;;;;12.50;5.90;;;17.60;90.80;;;;;;5014387;28;20455;-71
2022/10/30 02:42:43;;;;;;;11.13;7.03;;;17.60;90.90;;;;;;5013898;28;20979;-71
2022/10/30 02:45:11;;;;;;;10.93;6.10;;;17.50;90.80;;;;;;5014064;28;20491;-71
2022/10/30 02:47:38;;;;;;;13.43;6.40;;;17.50;90.90;;;;;;5013964;28;20487;-71
2022/10/30 02:50:06;;;;;;;13.67;6.90;;;17.40;91.00;;;;;;5014166;28;20826;-71
2022/10/30 02:52:33;;;;;;;7.60;5.83;;;17.40;91.20;;;;;;5014292;28;20827;-71
2022/10/30 02:55:01;;;;;;;8.70;6.70;;;17.40;91.10;;;;;;5014125;28;20447;-71
2022/10/30 02:57:27;;;;;;;10.37;5.87;;;17.40;91.10;;;;;;5014418;28;20451;-71
2022/10/30 02:59:54;;;;;;;8.50;5.73;;;17.30;91.30;;;;;;5014147;28;20452;-71
2022/10/30 03:02:21;;;;;;;13.63;6.97;;;17.30;91.40;;;;;;5014241;28;20476;-71
2022/10/30 03:04:48;;;;;;;16.67;7.10;;;17.30;91.50;;;;;;5014006;28;20486;-71
2022/10/30 03:07:14;;;;;;;10.50;5.93;;;17.30;91.50;;;;;;5013682;28;20506;-71
2022/10/30 03:09:41;;;;;;;12.73;6.03;;;17.30;91.70;;;;;;5013957;28;20454;-71
2022/10/30 03:12:09;;;;;;;11.87;6.23;;;17.30;91.90;;;;;;5014030;28;20590;-71
2022/10/30 03:14:36;;;;;;;14.47;7.10;;;17.20;91.90;;;;;;5013542;28;20830;-71
2022/10/30 03:17:03;;;;;;;11.27;6.60;;;17.20;91.90;;;;;;5014096;28;20462;-71
2022/10/30 03:19:29;;;;;;;10.47;6.50;;;17.20;91.80;;;;;;5013937;28;20447;-71
2022/10/30 03:21:56;;;;;;;6.80;5.60;;;17.10;91.80;;;;;;5015797;28;20490;-71
2022/10/30 03:24:23;;;;;;;9.77;7.13;;;17.10;91.80;;;;;;5017577;28;20483;-71
2022/10/30 03:26:49;;;;;;;10.73;6.83;;;17.10;91.90;;;;;;5017724;28;20459;-71
2022/10/30 03:29:17;;;;;;;10.60;6.57;;;17.10;92.00;;;;;;5017791;28;20443;-71
2022/10/30 03:31:44;;;;;;;10.00;6.00;;;17.10;91.90;;;;;;5017745;28;20459;-71
2022/10/30 03:34:11;;;;;;;7.33;6.10;;;17.00;91.80;;;;;;5017276;28;20455;-71
2022/10/30 03:36:38;;;;;;;11.67;6.17;;;17.00;91.90;;;;;;5017279;28;20451;-71
2022/10/30 03:39:05;;;;;;;7.90;6.87;;;17.00;92.00;;;;;;5017464;28;20455;-71
2022/10/30 03:41:33;;;;;;;9.00;6.07;;;16.90;92.00;;;;;;5017395;28;20625;-71
2022/10/30 03:44:00;;;;;;;16.00;6.93;;;16.90;92.00;;;;;;5017412;28;20480;-71
2022/10/30 03:46:30;;;;;;;11.93;7.10;;;16.90;92.00;;;;;;5017056;28;20451;-70
2022/10/30 03:48:57;;;;;;;12.33;6.70;;;16.80;91.90;;;;;;5017420;28;20440;-71
2022/10/30 03:51:23;;;;;;;8.33;6.03;;;16.80;91.80;;;;;;5017215;28;20889;-71
2022/10/30 03:53:50;;;;;;;8.83;6.03;;;16.80;91.90;;;;;;5017244;28;20479;-71
2022/10/30 03:56:18;;;;;;;16.50;6.20;;;16.80;91.90;;;;;;5017026;28;20451;-71
2022/10/30 03:58:45;;;;;;;12.30;7.27;;;16.70;91.90;;;;;;5017349;28;20461;-71
2022/10/30 04:01:12;;;;;;;12.60;7.07;;;16.70;91.90;;;;;;5017091;28;20451;-71
2022/10/30 04:03:40;;;;;;;14.90;6.73;;;16.70;92.00;;;;;;5017035;28;20475;-71
2022/10/30 04:06:07;;;;;;;9.60;6.70;;;16.70;92.00;;;;;;5016679;28;20834;-71
2022/10/30 04:08:33;;;;;;;8.67;6.33;;;16.60;92.00;;;;;;5017408;28;20455;-71
2022/10/30 04:11:00;;;;;;;8.73;6.03;;;16.60;91.90;;;;;;5017004;28;20475;-71
2022/10/30 04:13:27;;;;;;;7.13;6.23;;;16.50;91.90;;;;;;5016898;28;20459;-71
2022/10/30 04:15:54;;;;;;;9.57;6.63;;;16.50;91.90;;;;;;5017010;28;20456;-71
2022/10/30 04:18:21;;;;;;;9.03;5.87;;;16.50;91.90;;;;;;5016952;28;20463;-71
2022/10/30 04:20:49;;;;;;;14.10;6.57;;;16.50;92.00;;;;;;5017180;28;20451;-71
2022/10/30 04:23:18;;;;;;;10.07;6.63;;;16.40;92.00;;;;;;5016634;28;20990;-71
2022/10/30 04:25:45;;;;;;;8.70;6.97;;;16.40;92.10;;;;;;5016790;28;20530;-70
2022/10/30 04:28:12;;;;;;;9.90;5.80;;;16.30;92.00;;;;;;5016446;28;20447;-71
2022/10/30 04:30:39;;;;;;;10.00;6.87;;;16.30;92.10;;;;;;5016807;28;20809;-71
2022/10/30 04:33:07;;;;;;;11.93;6.57;;;16.30;92.10;;;;;;5016469;28;20567;-71
2022/10/30 04:35:37;;;;;;;10.37;6.40;;;16.30;92.20;;;;;;5016669;28;20927;-71
2022/10/30 04:38:07;;;;;;;12.93;6.67;;;16.20;92.40;;;;;;5016612;28;20448;-71
2022/10/30 04:40:36;;;;;;;8.83;6.00;;;16.20;92.60;;;;;;5017198;28;20459;-71
2022/10/30 04:43:03;;;;;;;8.17;6.33;;;16.20;92.80;;;;;;5016660;28;20470;-71
2022/10/30 04:45:30;;;;;;;13.20;7.03;;;16.20;92.90;;;;;;5016700;28;20491;-71
2022/10/30 04:48:04;;;;;;;10.57;6.77;;;16.20;92.90;;;;;;5016520;28;20448;-71
2022/10/30 04:50:31;;;;;;;12.23;6.20;;;16.10;92.80;;;;;;5016876;28;20443;-71
2022/10/30 04:53:02;;;;;;;19.80;7.57;;;16.10;92.80;;;;;;5016763;28;21005;-71
2022/10/30 04:55:31;;;;;;;9.30;5.70;;;16.10;92.90;;;;;;5016944;28;20450;-71
2022/10/30 04:57:58;;;;;;;11.93;6.33;;;16.10;92.90;;;;;;5016376;28;20482;-71
2022/10/30 05:00:26;;;;;;;10.80;6.33;;;16.10;93.00;;;;;;5016485;28;20939;-70
2022/10/30 05:02:52;;;;;;;8.60;5.50;;;16.10;93.10;;;;;;5016537;28;20483;-70
2022/10/30 05:05:20;;;;;;;9.37;6.60;;;16.10;93.20;;;;;;5016311;28;20476;-71
2022/10/30 05:07:46;;;;;;;12.73;6.90;;;16.10;93.30;;;;;;5016021;28;20957;-70
2022/10/30 05:10:14;;;;;;;8.63;5.90;;;16.10;93.20;;;;;;5016360;28;20460;-71
2022/10/30 05:12:43;;;;;;;7.53;5.77;;;16.10;93.00;;;;;;5016808;28;20471;-71
2022/10/30 05:15:10;;;;;;;13.70;6.43;;;16.00;92.90;;;;;;5017344;28;20454;-71
2022/10/30 05:17:37;;;;;;;9.53;6.10;;;16.00;92.80;;;;;;5016137;28;20998;-71
2022/10/30 05:20:05;;;;;;;10.47;6.50;;;16.00;92.80;;;;;;5016376;28;20458;-71
2022/10/30 05:22:31;;;;;;;11.10;6.40;;;15.90;93.00;;;;;;5016913;28;20475;-71
2022/10/30 05:24:58;;;;;;;7.30;5.90;;;15.90;93.20;;;;;;5015712;28;20908;-71
2022/10/30 05:27:25;;;;;;;7.70;5.33;;;15.90;93.20;;;;;;5016391;28;20455;-71
2022/10/30 05:29:53;;;;;;;9.40;6.80;;;16.00;93.20;;;;;;5015648;28;20435;-71
2022/10/30 05:32:20;;;;;;;9.10;4.93;;;15.90;93.20;;;;;;5016234;28;20479;-71
2022/10/30 05:34:46;;;;;;;10.10;6.17;;;15.90;93.20;;;;;;5016432;28;20961;-71
2022/10/30 05:37:13;;;;;;;10.50;6.10;;;15.90;93.30;;;;;;5016428;28;20451;-71
2022/10/30 05:39:40;;;;;;;9.93;6.70;;;15.90;93.40;;;;;;5017683;28;20474;-70
2022/10/30 05:42:07;;;;;;;8.10;6.30;;;15.90;93.30;;;;;;5018583;28;20475;-70
2022/10/30 05:44:33;;;;;;;7.00;5.17;;;15.80;93.00;;;;;;5017333;28;20483;-70
2022/10/30 05:47:02;;;;;;;13.07;5.70;;;15.80;92.90;;;;;;5017866;28;20432;-70
2022/10/30 05:49:29;;;;;;;13.50;5.93;;;15.70;92.80;;;;;;5020673;28;20455;-70
2022/10/30 05:51:55;;;;;;;9.20;5.63;;;15.70;92.90;;;;;;5020168;28;20479;-70
2022/10/30 05:54:22;;;;;;;10.27;5.73;;;15.70;93.00;;;;;;5017742;28;20440;-71
2022/10/30 05:56:49;;;;;;;9.87;6.00;;;15.70;93.20;;;;;;5017048;28;20451;-70
2022/10/30 05:59:16;;;;;;;10.10;6.37;;;15.70;93.20;;;;;;5018465;28;20446;-70
2022/10/30 06:01:43;;;;;;;7.97;6.73;;;15.70;93.10;;;;;;5018040;28;20446;-70
2022/10/30 06:04:12;;;;;;;9.03;7.07;;;15.60;93.20;;;;;;5018276;28;20447;-70
2022/10/30 06:06:38;;;;;;;9.83;6.37;;;15.60;93.20;;;;;;5018042;28;20499;-71
2022/10/30 06:09:05;;;;;;;12.83;6.60;;;15.60;93.50;;;;;;5018209;28;20452;-70
2022/10/30 06:11:32;;;;;;;15.80;6.97;;;15.60;93.20;;;;;;5019120;28;20958;-70
2022/10/30 06:13:59;;;;;;;9.50;6.43;;;15.60;93.20;;;;;;5019525;28;20444;-70
2022/10/30 06:16:25;;;;;;;14.50;6.67;;;15.60;93.20;;;;;;5018888;28;20451;-70
2022/10/30 06:18:52;;;;;;;14.83;6.73;;;15.60;93.20;;;;;;5018533;28;20455;-70
2022/10/30 06:21:20;;;;;;;10.03;6.33;;;15.60;93.10;;;;;;5019217;28;20456;-70
2022/10/30 06:23:48;;;;;;;12.73;7.30;;;15.60;93.30;;;;;;5017508;28;20472;-70
2022/10/30 06:26:15;;;;;;;9.73;7.47;;;15.60;93.40;;;;;;5017750;28;20498;-70
2022/10/30 06:28:42;;;;;;;9.37;7.07;;;15.60;93.40;;;;;;5018065;28;20830;-70
2022/10/30 06:31:08;;;;;;;17.40;7.00;;;15.60;93.20;;;;;;5018032;28;20442;-70
2022/10/30 06:33:36;;;;;;;8.87;6.37;;;15.50;93.10;;;;;;5018446;28;20479;-71
2022/10/30 06:36:02;;;;;;;10.77;7.40;;;15.50;93.10;;;;;;5019228;28;20448;-70
2022/10/30 06:38:31;;;;;;;8.77;6.90;;;15.50;93.20;;;;;;5020454;28;20455;-70
2022/10/30 06:40:57;;;;;;;9.33;6.70;;;15.50;93.20;;;;;;5019622;28;20950;-70
2022/10/30 06:43:24;;;;;;;9.13;6.77;;;15.50;93.10;;;;;;5020470;28;20475;-70
2022/10/30 06:45:51;;;;;;;13.53;7.97;;;15.50;93.10;;;;;;5020396;28;20487;-70
2022/10/30 06:48:18;;;;;;;12.63;7.63;;;15.50;93.10;;;;;;5019406;28;20463;-70
2022/10/30 06:50:45;;;;;;;8.20;6.83;;;15.50;93.10;;;;;;5019719;28;20485;-69
2022/10/30 06:53:11;;;;;;;13.63;7.40;;;15.50;93.10;;;;;;5018033;28;20468;-70
2022/10/30 06:55:39;;;;;;;14.13;7.90;;;15.50;93.20;;;;;;5021694;28;20447;-71
2022/10/30 06:58:06;;;;;;;10.07;7.57;;;15.50;93.20;;;;;;5026246;28;20451;-71
2022/10/30 07:00:33;;;;;;;10.60;8.83;;;15.50;93.40;;;;;;5033066;28;20442;-71
2022/10/30 07:03:03;;;;;;;12.43;8.17;;;15.50;93.50;;;;;;5040154;28;20451;-71
2022/10/30 07:05:30;;;;;;;16.00;8.20;;;15.50;93.60;;;;;;5040254;28;20506;-71
2022/10/30 07:07:57;;;;;;;13.90;8.90;;;15.60;93.60;;;;;;5040492;28;20418;-68
2022/10/30 07:10:24;;;;;;;10.97;8.03;;;15.60;93.60;;;;;;5038940;28;20471;-70
2022/10/30 07:12:54;;;;;;;13.20;9.80;;;15.60;93.60;;;;;;5039145;28;20467;-71
2022/10/30 07:15:20;;;;;;;12.17;8.70;;;15.60;93.60;;;;;;5039164;28;20428;-71
2022/10/30 07:17:58;;;;;;;14.23;8.70;;;15.60;93.60;;;;;;5039871;28;20454;-71
2022/10/30 07:20:25;;;;;;;14.90;9.37;;;15.60;93.60;;;;;;5036633;28;20433;-71
2022/10/30 07:22:52;;;;;;;15.00;9.37;;;15.60;93.70;;;;;;5036662;28;20447;-70
2022/10/30 07:25:19;;;;;;;19.60;9.63;;;15.60;93.80;;;;;;5034935;28;20482;-69
2022/10/30 07:27:47;;;;;;;15.50;10.83;;;15.70;93.90;;;;;;5032881;28;20431;-69
2022/10/30 07:30:17;;;;;;;11.27;10.03;;;15.60;94.00;;;;;;5032146;28;20480;-70
2022/10/30 07:32:44;;;;;;;17.30;9.90;;;15.70;94.10;;;;;;5028393;28;20464;-70
2022/10/30 07:35:11;;;;;;;13.70;10.10;;;15.70;94.10;;;;;;5022862;28;20431;-70
2022/10/30 07:37:38;;;;;;;16.20;11.77;;;15.70;94.20;;;;;;5023133;28;20542;-70
2022/10/30 07:40:06;;;;;;;19.40;12.00;;;15.70;94.20;;;;;;5020513;28;20451;-69
2022/10/30 07:42:33;;;;;;;16.80;11.47;;;15.80;94.30;;;;;;5018602;28;20459;-69
2022/10/30 07:45:00;;;;;;;13.53;10.50;;;15.80;94.40;;;;;;5018109;28;20523;-69
2022/10/30 07:47:28;;;;;;;21.43;13.50;;;15.80;94.40;;;;;;5017851;28;20450;-69
2022/10/30 07:49:55;;;;;;;17.27;13.30;;;15.80;94.50;;;;;;5017706;28;20439;-69
2022/10/30 07:52:22;;;;;;;20.77;12.00;;;15.80;94.50;;;;;;5017765;28;20483;-70
2022/10/30 07:54:49;;;;;;;19.57;11.67;;;15.90;94.50;;;;;;5017737;28;20451;-70
2022/10/30 07:57:15;;;;;;;18.63;11.60;;;15.90;94.50;;;;;;5017656;28;20449;-70
2022/10/30 07:59:42;;;;;;;15.00;11.70;;;15.90;94.50;;;;;;5016580;28;20943;-70
2022/10/30 08:02:10;;;;;;;16.80;12.23;;;16.00;94.60;;;;;;5017270;28;20479;-70
2022/10/30 08:04:38;;;;;;;14.93;11.70;;;16.00;94.60;;;;;;5017266;28;20447;-70
2022/10/30 08:07:04;;;;;;;14.60;11.60;;;16.00;94.50;;;;;;5016036;28;20483;-70
2022/10/30 08:09:31;;;;;;;18.40;12.07;;;16.10;94.40;;;;;;5016573;28;20436;-70
2022/10/30 08:11:58;;;;;;;17.53;12.27;;;16.10;94.40;;;;;;5017335;28;20830;-70
2022/10/30 08:14:25;;;;;;;17.13;11.23;;;16.10;94.40;;;;;;5016850;28;20439;-70
2022/10/30 08:16:52;;;;;;;15.10;11.60;;;16.10;94.40;;;;;;5016600;28;20432;-70
2022/10/30 08:19:18;;;;;;;18.33;12.37;;;16.20;94.50;;;;;;5017396;28;20455;-70
2022/10/30 08:21:46;;;;;;;14.87;10.50;;;16.20;94.50;;;;;;5016336;28;20946;-70
2022/10/30 08:24:13;;;;;;;13.67;11.37;;;16.20;94.50;;;;;;5016092;28;20935;-69
2022/10/30 08:26:40;;;;;;;15.90;11.10;;;16.30;94.50;;;;;;5016500;28;20471;-69
2022/10/30 08:29:07;;;;;;;14.43;11.40;;;16.30;94.60;;;;;;5016219;28;20868;-68
2022/10/30 08:31:34;;;;;;;19.77;10.90;;;16.40;94.60;;;;;;5016376;28;20448;-68
2022/10/30 08:34:01;;;;;;;16.33;9.93;;;16.40;94.60;;;;;;5015864;28;20466;-68
2022/10/30 08:36:27;;;;;;;12.27;10.03;;;16.40;94.50;;;;;;5016101;28;20961;-69
2022/10/30 08:38:57;;;;;;;13.30;9.40;;;16.40;94.40;;;;;;5016374;28;20447;-69
2022/10/30 08:41:23;;;;;;;11.90;10.07;;;16.50;94.40;;;;;;5016092;28;20455;-69
2022/10/30 08:43:50;;;;;;;16.00;10.00;;;16.60;94.40;;;;;;5015837;28;20471;-69
2022/10/30 08:46:17;;;;;;;15.77;9.57;;;16.60;94.30;;;;;;5016185;28;20829;-70
2022/10/30 08:48:44;;;;;;;14.87;9.30;;;16.70;94.30;;;;;;5016697;28;20529;-69
2022/10/30 08:51:11;;;;;;;12.33;8.90;;;16.80;94.20;;;;;;5017289;28;20455;-69
2022/10/30 08:53:37;;;;;;;11.40;8.53;;;16.80;94.00;;;;;;5017388;28;20476;-69
2022/10/30 08:56:06;;;;;;;12.83;9.50;;;16.90;93.80;;;;;;5015759;28;20484;-69
2022/10/30 08:58:33;;;;;;;12.80;9.80;;;17.00;93.70;;;;;;5015863;28;20440;-70
2022/10/30 09:00:59;;;;;;;10.60;9.17;;;17.10;93.70;;;;;;5015298;28;20444;-69
2022/10/30 09:03:26;;;;;;;13.23;8.70;;;17.20;93.60;;;;;;5014995;28;20999;-69
2022/10/30 09:05:53;;;;;;;13.80;9.10;;;17.30;93.50;;;;;;5015448;28;20491;-69
2022/10/30 09:08:19;;;;;;;10.83;7.40;;;17.40;93.30;;;;;;5015490;28;20436;-69
2022/10/30 09:10:46;;;;;;;13.90;8.90;;;17.50;93.20;;;;;;5015570;28;20452;-69
2022/10/30 09:13:14;;;;;;;8.83;7.80;;;17.60;93.10;;;;;;5015437;28;20471;-69
2022/10/30 09:15:41;;;;;;;14.93;7.93;;;17.70;93.00;;;;;;5015400;28;20454;-70
2022/10/30 09:18:08;;;;;;;16.13;8.63;;;17.80;92.90;;;;;;5014694;28;20932;-69
2022/10/30 09:20:35;;;;;;;16.17;8.00;;;17.90;92.70;;;;;;5014286;28;20456;-70
2022/10/30 09:23:01;;;;;;;13.20;7.00;;;18.00;92.60;;;;;;5014989;28;20479;-70
2022/10/30 09:25:28;;;;;;;12.17;7.13;;;18.10;92.40;;;;;;5014812;28;20974;-70
2022/10/30 09:27:55;;;;;;;14.60;7.00;;;18.20;92.20;;;;;;5015221;28;20455;-70
2022/10/30 09:30:24;;;;;;;16.30;7.90;;;18.30;91.80;;;;;;5019399;28;20455;-68
2022/10/30 09:32:55;;;;;;;12.97;7.53;;;18.50;91.10;;;;;;5028952;28;20488;-68
2022/10/30 09:35:21;;;;;;;9.90;7.87;;;18.60;90.70;;;;;;5025436;28;20449;-68
2022/10/30 09:37:48;;;;;;;14.13;7.57;;;18.70;90.50;;;;;;5025026;28;20449;-69
2022/10/30 09:40:25;;;;;;;14.60;7.10;;;18.80;90.30;;;;;;5024186;28;20440;-69
2022/10/30 09:42:52;;;;;;;17.30;8.60;;;18.90;90.20;;;;;;5025740;28;20542;-69
2022/10/30 09:45:51;;;;;;;10.53;7.17;;;19.10;90.50;;;;;;5024184;28;20474;-69
2022/10/30 09:48:46;;;;;;;12.43;7.80;;;19.20;90.40;;;;;;4990046;28;20440;-69
2022/10/30 09:51:28;;;;;;;10.83;7.10;;;19.40;90.00;;;;;;5028065;28;20463;-69
2022/10/30 09:54:04;;;;;;;12.80;7.47;;;19.60;89.70;;;;;;5028006;28;20468;-69
2022/10/30 09:56:36;;;;;;;13.90;7.43;;;19.80;88.80;;;;;;5028316;28;20834;-69
2022/10/30 09:59:14;;;;;;;11.33;7.27;;;19.90;87.10;;;;;;5028797;28;20435;-69
2022/10/30 10:01:47;;;;;;;13.20;6.63;;;20.00;87.70;;;;;;5028245;28;20915;-69
2022/10/30 10:04:23;;;;;;;16.83;7.23;;;20.20;87.90;;;;;;5025806;28;20440;-70
2022/10/30 10:06:56;;;;;;;12.07;6.27;;;20.40;87.30;;;;;;5017786;28;20844;-69
2022/10/30 10:09:26;;;;;;;14.03;7.10;;;20.60;85.80;;;;;;5017666;28;20451;-69
2022/10/30 10:11:58;;;;;;;10.97;7.07;;;20.80;85.00;;;;;;5016835;28;20838;-68
2022/10/30 10:14:29;;;;;;;18.70;8.00;;;21.00;84.90;;;;;;5017561;28;20436;-69
2022/10/30 10:16:59;;;;;;;15.40;6.87;;;21.20;84.70;;;;;;5017349;28;20442;-69
2022/10/30 10:19:32;;;;;;;10.80;7.73;;;21.50;84.40;;;;;;5018956;28;20459;-69
2022/10/30 10:22:01;;;;;;;10.80;6.70;;;21.70;83.40;;;;;;5017929;28;20471;-69
2022/10/30 10:24:31;;;;;;;11.40;6.47;;;22.10;82.60;;;;;;5016963;28;20950;-68
2022/10/30 10:27:06;;;;;;;13.00;6.83;;;22.50;80.40;;;;;;5017915;28;20486;-70
2022/10/30 10:29:44;;;;;;;10.30;6.60;;;22.90;77.90;;;;;;5019303;28;20456;-68
2022/10/30 10:32:57;;;;;;;13.30;7.07;;;23.30;75.00;;;;;;5018647;28;20472;-68
2022/10/30 10:35:41;;;;;;;11.50;6.50;;;23.60;73.80;;;;;;5003003;28;20439;-69
2022/10/30 10:38:17;;;;;;;17.37;7.10;;;23.70;73.10;;;;;;5018976;28;20435;-69
2022/10/30 10:40:55;;;;;;;9.53;6.70;;;23.90;71.90;;;;;;5017442;28;20443;-66
2022/10/30 10:43:36;;;;;;;13.57;6.63;;;24.00;71.60;;;;;;5017607;28;20474;-69
2022/10/30 10:46:24;;;;;;;15.50;7.40;;;24.20;71.30;;;;;;5017940;28;20931;-67
2022/10/30 10:49:02;;;;;;;14.90;7.47;;;24.30;69.80;;;;;;5019738;28;20440;-68
2022/10/30 10:51:36;;;;;;;9.53;6.63;;;24.50;68.60;;;;;;5018238;28;20439;-67
2022/10/30 10:54:08;;;;;;;13.00;7.20;;;24.60;66.80;;;;;;5018608;28;20447;-68
2022/10/30 10:56:39;;;;;;;14.50;6.67;;;24.70;64.50;;;;;;5018722;28;20435;-67
2022/10/30 10:59:15;;;;;;;15.30;6.30;;;24.90;64.00;;;;;;5016043;28;20451;-67
2022/10/30 11:01:49;;;;;;;15.47;8.40;;;25.30;64.60;;;;;;5015695;28;20447;-69
2022/10/30 11:04:24;;;;;;;11.87;7.30;;;25.80;64.20;;;;;;5014371;28;20930;-67
2022/10/30 11:06:54;;;;;;;16.70;7.60;;;26.30;60.80;;;;;;5014103;28;20471;-68
2022/10/30 11:09:22;;;;;;;14.70;6.87;;;26.90;59.60;;;;;;5015094;28;20451;-69
2022/10/30 11:11:52;;;;;;;9.97;6.90;;;27.40;57.80;;;;;;5014126;28;20452;-68
2022/10/30 11:14:21;;;;;;;10.50;6.50;;;27.90;56.30;;;;;;5014349;28;20459;-68
2022/10/30 11:17:05;;;;;;;10.87;7.13;;;28.40;54.60;;;;;;5016172;28;20439;-69
2022/10/30 11:19:32;;;;;;;12.23;7.30;;;28.80;53.50;;;;;;5012831;28;20981;-69
2022/10/30 11:22:03;;;;;;;13.03;6.50;;;29.00;52.50;;;;;;5013841;28;20478;-69
2022/10/30 11:24:32;;;;;;;9.77;6.40;;;29.30;51.90;;;;;;5014307;28;20436;-69
2022/10/30 11:27:15;;;;;;;11.73;6.37;;;29.50;50.80;;;;;;5015157;28;20475;-69
2022/10/30 11:29:48;;;;;;;11.90;6.70;;;29.70;50.20;;;;;;5013865;28;20439;-69
2022/10/30 11:32:21;;;;;;;8.80;6.17;;;29.90;49.50;;;;;;5014855;28;20474;-67
2022/10/30 11:35:00;;;;;;;12.40;6.93;;;30.10;48.90;;;;;;5013779;28;20447;-68
2022/10/30 11:37:33;;;;;;;9.57;6.87;;;30.20;47.20;;;;;;5014378;28;20430;-68
2022/10/30 11:40:12;;;;;;;10.83;7.93;;;30.30;47.40;;;;;;5015200;28;20435;-68
2022/10/30 11:42:41;;;;;;;16.60;7.27;;;30.40;47.30;;;;;;5015774;28;20458;-67
2022/10/30 11:45:15;;;;;;;15.17;7.33;;;30.50;47.20;;;;;;5018325;28;20430;-67
2022/10/30 11:47:42;;;;;;;13.90;7.40;;;30.60;46.40;;;;;;5018131;28;20493;-67
2022/10/30 11:50:19;;;;;;;9.80;6.70;;;30.60;45.90;;;;;;5021894;28;20467;-71
2022/10/30 11:52:49;;;;;;;10.10;7.00;;;30.70;45.60;;;;;;5018855;28;20470;-68
2022/10/30 11:55:19;;;;;;;10.93;7.13;;;30.90;45.50;;;;;;5017725;28;20431;-68
2022/10/30 11:57:48;;;;;;;13.83;7.10;;;31.10;45.10;;;;;;5017587;28;20462;-68
2022/10/30 12:00:18;;;;;;;14.97;6.67;;;31.20;44.30;;;;;;5017352;28;20450;-67
2022/10/30 12:02:48;;;;;;;10.17;6.80;;;31.30;43.90;;;;;;5016744;28;20824;-67
2022/10/30 12:05:40;;;;;;;12.77;7.87;;;31.50;43.80;;;;;;5017355;28;20454;-68
2022/10/30 12:08:20;;;;;;;11.00;7.73;;;31.60;43.40;;;;;;5002472;28;20494;-67
2022/10/30 12:10:56;;;;;;;14.07;7.40;;;31.70;42.80;;;;;;5018312;28;20434;-68
2022/10/30 12:13:24;;;;;;;11.27;6.60;;;31.70;43.00;;;;;;5017297;28;20474;-68
2022/10/30 12:16:05;;;;;;;10.47;7.13;;;31.60;42.60;;;;;;5016896;28;20954;-68
2022/10/30 12:18:32;;;;;;;12.20;7.17;;;31.60;42.70;;;;;;5017516;28;20431;-67
2022/10/30 12:21:00;;;;;;;10.97;6.13;;;31.60;42.70;;;;;;5017745;28;20458;-67
2022/10/30 12:23:29;;;;;;;14.77;6.13;;;31.40;41.80;;;;;;5016654;28;20466;-69
2022/10/30 12:25:59;;;;;;;17.97;7.00;;;31.30;41.60;;;;;;5017190;28;20464;-67
2022/10/30 12:28:28;;;;;;;10.30;6.67;;;31.10;42.20;;;;;;5019413;28;20486;-69
2022/10/30 12:30:59;;;;;;;9.97;6.60;;;30.90;42.30;;;;;;5016224;28;20530;-69
2022/10/30 12:33:29;;;;;;;11.30;5.67;;;30.70;43.10;;;;;;5016188;28;20482;-69
2022/10/30 12:35:58;;;;;;;13.20;5.80;;;30.70;43.30;;;;;;5016269;28;20941;-68
2022/10/30 12:38:32;;;;;;;12.07;6.20;;;30.70;41.80;;;;;;5016511;28;20529;-68
2022/10/30 12:41:05;;;;;;;7.70;5.73;;;30.70;42.30;;;;;;5017001;28;20449;-70
2022/10/30 12:43:34;;;;;;;9.60;5.80;;;30.60;41.80;;;;;;5016664;28;20838;-71
2022/10/30 12:46:28;;;;;;;17.13;6.07;;;30.60;41.70;;;;;;5016911;28;20427;-71
2022/10/30 12:49:02;;;;;;;11.47;5.53;;;30.50;41.80;;;;;;5018027;28;20446;-71
2022/10/30 12:51:35;;;;;;;8.93;4.73;;;30.30;41.40;;;;;;5016547;28;20412;-71